createdAt,value
2016-09-22T00:00:01.381Z,1015.11
2016-09-22T00:01:01.380Z,1015.15
2016-09-22T00:02:01.347Z,1015.13
2016-09-22T00:03:01.332Z,1015.11
2016-09-22T00:04:01.317Z,1015.11
2016-09-22T00:05:01.299Z,1015.12
2016-09-22T00:06:01.282Z,1015.13
2016-09-22T00:07:01.266Z,1015.14
2016-09-22T00:08:01.251Z,1015.09
2016-09-22T00:09:01.235Z,1015.11
2016-09-22T00:10:01.225Z,1015.1
2016-09-22T00:11:01.223Z,1015.09
2016-09-22T00:12:01.186Z,1015.07
2016-09-22T00:13:01.171Z,1015.09
2016-09-22T00:14:01.158Z,1015.06
2016-09-22T00:15:01.137Z,1015.07
2016-09-22T00:16:01.122Z,1015.08
2016-09-22T00:17:01.106Z,1015.09
2016-09-22T00:18:01.091Z,1015.07
2016-09-22T00:19:01.074Z,1015.13
2016-09-22T00:20:01.063Z,1015.12
2016-09-22T00:21:01.044Z,1015.09
2016-09-22T00:22:01.025Z,1015.12
2016-09-22T00:23:01.007Z,1015.12
2016-09-22T00:24:00.992Z,1015.13
2016-09-22T00:25:00.985Z,1015.16
2016-09-22T00:26:00.959Z,1015.15
2016-09-22T00:27:00.946Z,1015.18
2016-09-22T00:28:00.929Z,1015.15
2016-09-22T00:29:00.914Z,1015.16
2016-09-22T00:30:00.899Z,1015.13
2016-09-22T00:31:00.880Z,1015.16
2016-09-22T00:32:00.864Z,1015.15
2016-09-22T00:33:00.850Z,1015.16
2016-09-22T00:34:00.830Z,1015.15
2016-09-22T00:35:00.817Z,1015.19
2016-09-22T00:36:00.796Z,1015.21
2016-09-22T00:37:00.784Z,1015.16
2016-09-22T00:38:00.765Z,1015.18
2016-09-22T00:39:00.752Z,1015.16
2016-09-22T00:40:00.736Z,1015.2
2016-09-22T00:41:00.723Z,1015.22
2016-09-22T00:42:00.705Z,1015.19
2016-09-22T00:43:00.686Z,1015.18
2016-09-22T00:44:00.672Z,1015.17
2016-09-22T00:45:00.653Z,1015.18
2016-09-22T00:46:00.633Z,1015.2
2016-09-22T00:47:00.626Z,1015.21
2016-09-22T00:48:00.606Z,1015.17
2016-09-22T00:49:00.589Z,1015.18
2016-09-22T00:50:00.571Z,1015.21
2016-09-22T00:51:00.562Z,1015.16
2016-09-22T00:52:00.540Z,1015.22
2016-09-22T00:53:00.527Z,1015.21
2016-09-22T00:54:00.509Z,1015.22
2016-09-22T00:55:00.494Z,1015.25
2016-09-22T00:56:00.475Z,1015.21
2016-09-22T00:57:00.460Z,1015.2
2016-09-22T00:58:00.444Z,1015.18
2016-09-22T00:59:00.430Z,1015.2
2016-09-22T01:00:00.412Z,1015.19
2016-09-22T01:01:00.396Z,1015.18
2016-09-22T01:02:00.382Z,1015.18
2016-09-22T01:03:00.365Z,1015.16
2016-09-22T01:04:00.350Z,1015.18
2016-09-22T01:05:00.330Z,1015.12
2016-09-22T01:06:00.315Z,1015.14
2016-09-22T01:07:00.299Z,1015.09
2016-09-22T01:08:00.287Z,1015.1
2016-09-22T01:09:00.267Z,1015.12
2016-09-22T01:10:00.251Z,1015.12
2016-09-22T01:11:00.446Z,1015.12
2016-09-22T01:12:00.219Z,1015.1
2016-09-22T01:13:00.202Z,1015.17
2016-09-22T01:14:00.189Z,1015.11
2016-09-22T01:15:00.172Z,1015.11
2016-09-22T01:16:00.155Z,1015.16
2016-09-22T01:17:00.141Z,1015.11
2016-09-22T01:18:00.124Z,1015.1
2016-09-22T01:19:00.109Z,1015.14
2016-09-22T01:20:00.092Z,1015.1
2016-09-22T01:21:00.077Z,1015.12
2016-09-22T01:22:00.058Z,1015.11
2016-09-22T01:23:00.048Z,1015.14
2016-09-22T01:24:00.031Z,1015.14
2016-09-22T01:25:00.010Z,1015.06
2016-09-22T01:25:59.995Z,1015.11
2016-09-22T01:26:59.979Z,1015.11
2016-09-22T01:27:59.964Z,1015.11
2016-09-22T01:28:59.949Z,1015.09
2016-09-22T01:29:59.929Z,1015.15
2016-09-22T01:30:59.913Z,1015.13
2016-09-22T01:31:59.897Z,1015.14
2016-09-22T01:32:59.876Z,1015.12
2016-09-22T01:33:59.865Z,1015.14
2016-09-22T01:34:59.848Z,1015.16
2016-09-22T01:35:59.831Z,1015.14
2016-09-22T01:36:59.816Z,1015.08
2016-09-22T01:37:59.803Z,1015.11
2016-09-22T01:38:59.785Z,1015.19
2016-09-22T01:39:59.767Z,1015.14
2016-09-22T01:40:59.752Z,1015.15
2016-09-22T01:41:59.741Z,1015.12
2016-09-22T01:42:59.720Z,1015.12
2016-09-22T01:43:59.703Z,1015.15
2016-09-22T01:44:59.687Z,1015.14
2016-09-22T01:45:59.669Z,1015.12
2016-09-22T01:46:59.653Z,1015.14
2016-09-22T01:47:59.639Z,1015.14
2016-09-22T01:48:59.622Z,1015.13
2016-09-22T01:49:59.607Z,1015.12
2016-09-22T01:50:59.587Z,1015.15
2016-09-22T01:51:59.574Z,1015.05
2016-09-22T01:52:59.555Z,1015.14
2016-09-22T01:53:59.540Z,1015.11
2016-09-22T01:54:59.524Z,1015.1
2016-09-22T01:55:59.509Z,1015.11
2016-09-22T01:56:59.491Z,1015.08
2016-09-22T01:57:59.478Z,1015.12
2016-09-22T01:58:59.457Z,1015.07
2016-09-22T01:59:59.447Z,1015.1
2016-09-22T02:00:59.427Z,1015.1
2016-09-22T02:01:59.409Z,1015.08
2016-09-22T02:02:59.394Z,1015.12
2016-09-22T02:03:59.378Z,1015.17
2016-09-22T02:04:59.360Z,1015.11
2016-09-22T02:05:59.347Z,1015.13
2016-09-22T02:06:59.327Z,1015.14
2016-09-22T02:07:59.312Z,1015.15
2016-09-22T02:08:59.296Z,1015.15
2016-09-22T02:09:59.284Z,1015.14
2016-09-22T02:10:59.266Z,1015.13
2016-09-22T02:11:59.248Z,1015.12
2016-09-22T02:12:59.232Z,1015.14
2016-09-22T02:13:59.221Z,1015.12
2016-09-22T02:14:59.201Z,1015.14
2016-09-22T02:15:59.182Z,1015.16
2016-09-22T02:16:59.166Z,1015.15
2016-09-22T02:17:59.151Z,1015.14
2016-09-22T02:18:59.140Z,1015.14
2016-09-22T02:19:59.121Z,1015.18
2016-09-22T02:20:59.104Z,1015.16
2016-09-22T02:21:59.086Z,1015.18
2016-09-22T02:22:59.071Z,1015.22
2016-09-22T02:23:59.053Z,1015.18
2016-09-22T02:24:59.035Z,1015.19
2016-09-22T02:25:59.020Z,1015.22
2016-09-22T02:26:59.004Z,1015.22
2016-09-22T02:27:58.988Z,1015.24
2016-09-22T02:28:58.974Z,1015.25
2016-09-22T02:29:58.957Z,1015.22
2016-09-22T02:30:58.938Z,1015.26
2016-09-22T02:31:58.922Z,1015.25
2016-09-22T02:32:58.912Z,1015.21
2016-09-22T02:33:58.891Z,1015.22
2016-09-22T02:34:58.873Z,1015.23
2016-09-22T02:35:58.860Z,1015.22
2016-09-22T02:36:58.843Z,1015.23
2016-09-22T02:37:58.831Z,1015.24
2016-09-22T02:38:58.813Z,1015.2
2016-09-22T02:39:58.795Z,1015.23
2016-09-22T02:40:58.781Z,1015.26
2016-09-22T02:41:58.763Z,1015.24
2016-09-22T02:42:58.743Z,1015.23
2016-09-22T02:43:58.732Z,1015.23
2016-09-22T02:44:58.714Z,1015.22
2016-09-22T02:45:58.699Z,1015.24
2016-09-22T02:46:58.682Z,1015.24
2016-09-22T02:47:58.669Z,1015.29
2016-09-22T02:48:58.649Z,1015.27
2016-09-22T02:49:58.630Z,1015.27
2016-09-22T02:50:58.620Z,1015.22
2016-09-22T02:51:58.600Z,1015.22
2016-09-22T02:52:58.584Z,1015.2
2016-09-22T02:53:58.564Z,1015.24
2016-09-22T02:54:58.549Z,1015.21
2016-09-22T02:55:58.537Z,1015.24
2016-09-22T02:56:58.521Z,1015.26
2016-09-22T02:57:58.502Z,1015.21
2016-09-22T02:58:58.486Z,1015.2
2016-09-22T02:59:58.466Z,1015.22
2016-09-22T03:00:58.454Z,1015.19
2016-09-22T03:01:58.435Z,1015.23
2016-09-22T03:02:58.422Z,1015.21
2016-09-22T03:03:58.407Z,1015.23
2016-09-22T03:04:58.390Z,1015.23
2016-09-22T03:05:58.373Z,1015.25
2016-09-22T03:06:58.353Z,1015.21
2016-09-22T03:07:58.346Z,1015.28
2016-09-22T03:08:58.320Z,1015.23
2016-09-22T03:09:58.312Z,1015.2
2016-09-22T03:10:58.288Z,1015.24
2016-09-22T03:11:58.275Z,1015.22
2016-09-22T03:12:58.262Z,1015.24
2016-09-22T03:13:58.242Z,1015.2
2016-09-22T03:14:58.223Z,1015.25
2016-09-22T03:15:58.210Z,1015.24
2016-09-22T03:16:58.193Z,1015.22
2016-09-22T03:17:58.178Z,1015.21
2016-09-22T03:18:58.159Z,1015.18
2016-09-22T03:19:58.142Z,1015.21
2016-09-22T03:20:58.128Z,1015.21
2016-09-22T03:21:58.108Z,1015.27
2016-09-22T03:22:58.093Z,1015.23
2016-09-22T03:23:58.078Z,1015.24
2016-09-22T03:24:58.063Z,1015.23
2016-09-22T03:25:58.044Z,1015.22
2016-09-22T03:26:58.027Z,1015.18
2016-09-22T03:27:58.011Z,1015.21
2016-09-22T03:28:57.997Z,1015.2
2016-09-22T03:29:57.980Z,1015.23
2016-09-22T03:30:57.964Z,1015.26
2016-09-22T03:31:57.946Z,1015.26
2016-09-22T03:32:57.930Z,1015.2
2016-09-22T03:33:57.912Z,1015.18
2016-09-22T03:34:57.898Z,1015.22
2016-09-22T03:35:57.883Z,1015.25
2016-09-22T03:36:57.863Z,1015.24
2016-09-22T03:37:57.852Z,1015.25
2016-09-22T03:38:57.834Z,1015.21
2016-09-22T03:39:57.820Z,1015.24
2016-09-22T03:40:57.799Z,1015.18
2016-09-22T03:41:57.784Z,1015.19
2016-09-22T03:42:57.772Z,1015.17
2016-09-22T03:43:57.754Z,1015.14
2016-09-22T03:44:57.735Z,1015.18
2016-09-22T03:45:57.724Z,1015.19
2016-09-22T03:46:57.704Z,1015.14
2016-09-22T03:47:57.694Z,1015.22
2016-09-22T03:48:57.670Z,1015.17
2016-09-22T03:49:57.655Z,1015.19
2016-09-22T03:50:57.639Z,1015.21
2016-09-22T03:51:57.620Z,1015.23
2016-09-22T03:52:57.604Z,1015.2
2016-09-22T03:53:57.596Z,1015.22
2016-09-22T03:54:57.575Z,1015.22
2016-09-22T03:55:57.553Z,1015.23
2016-09-22T03:56:57.537Z,1015.22
2016-09-22T03:57:57.523Z,1015.18
2016-09-22T03:58:57.505Z,1015.2
2016-09-22T03:59:57.491Z,1015.17
2016-09-22T04:00:57.481Z,1015.23
2016-09-22T04:01:57.458Z,1015.18
2016-09-22T04:02:57.443Z,1015.18
2016-09-22T04:03:57.972Z,1015.17
2016-09-22T04:04:57.409Z,1015.2
2016-09-22T04:05:57.393Z,1015.19
2016-09-22T04:06:57.374Z,1015.19
2016-09-22T04:07:57.359Z,1015.2
2016-09-22T04:08:57.342Z,1015.16
2016-09-22T04:09:57.325Z,1015.16
2016-09-22T04:10:57.309Z,1015.16
2016-09-22T04:11:57.292Z,1015.18
2016-09-22T04:12:57.277Z,1015.19
2016-09-22T04:13:57.268Z,1015.11
2016-09-22T04:14:57.249Z,1015.15
2016-09-22T04:15:57.225Z,1015.09
2016-09-22T04:16:57.208Z,1015.07
2016-09-22T04:17:57.195Z,1015.09
2016-09-22T04:18:57.182Z,1015.05
2016-09-22T04:19:57.161Z,1015.04
2016-09-22T04:20:57.146Z,1015.07
2016-09-22T04:21:57.129Z,1015.07
2016-09-22T04:22:57.113Z,1015.08
2016-09-22T04:23:57.095Z,1015.04
2016-09-22T04:24:57.079Z,1015.06
2016-09-22T04:25:57.064Z,1015.1
2016-09-22T04:26:57.060Z,1015.13
2016-09-22T04:27:57.049Z,1015.13
2016-09-22T04:28:57.012Z,1015.13
2016-09-22T04:29:56.996Z,1015.17
2016-09-22T04:30:56.981Z,1015.15
2016-09-22T04:31:56.967Z,1015.2
2016-09-22T04:32:56.948Z,1015.23
2016-09-22T04:33:56.931Z,1015.24
2016-09-22T04:34:56.914Z,1015.19
2016-09-22T04:35:56.898Z,1015.22
2016-09-22T04:36:56.887Z,1015.21
2016-09-22T04:37:56.865Z,1015.22
2016-09-22T04:38:56.850Z,1015.22
2016-09-22T04:39:56.833Z,1015.22
2016-09-22T04:40:56.818Z,1015.18
2016-09-22T04:41:56.796Z,1015.18
2016-09-22T04:42:56.780Z,1015.21
2016-09-22T04:43:56.762Z,1015.18
2016-09-22T04:44:56.748Z,1015.18
2016-09-22T04:45:56.731Z,1015.2
2016-09-22T04:46:56.720Z,1015.2
2016-09-22T04:47:56.697Z,1015.19
2016-09-22T04:48:56.687Z,1015.22
2016-09-22T04:49:56.666Z,1015.25
2016-09-22T04:50:56.651Z,1015.22
2016-09-22T04:51:56.635Z,1015.22
2016-09-22T04:52:56.616Z,1015.25
2016-09-22T04:53:56.601Z,1015.25
2016-09-22T04:54:56.582Z,1015.24
2016-09-22T04:55:56.568Z,1015.19
2016-09-22T04:56:56.553Z,1015.21
2016-09-22T04:57:56.541Z,1015.23
2016-09-22T04:58:56.522Z,1015.19
2016-09-22T04:59:56.507Z,1015.2
2016-09-22T05:00:56.486Z,1015.2
2016-09-22T05:01:56.469Z,1015.22
2016-09-22T05:02:56.454Z,1015.2
2016-09-22T05:03:56.436Z,1015.16
2016-09-22T05:04:56.419Z,1015.2
2016-09-22T05:05:56.405Z,1015.22
2016-09-22T05:06:56.387Z,1015.17
2016-09-22T05:07:56.372Z,1015.18
2016-09-22T05:08:56.353Z,1015.17
2016-09-22T05:09:56.340Z,1015.21
2016-09-22T05:10:56.323Z,1015.16
2016-09-22T05:11:56.306Z,1015.16
2016-09-22T05:12:56.290Z,1015.2
2016-09-22T05:13:56.273Z,1015.22
2016-09-22T05:14:56.256Z,1015.18
2016-09-22T05:15:56.241Z,1015.17
2016-09-22T05:16:56.221Z,1015.22
2016-09-22T05:17:56.207Z,1015.25
2016-09-22T05:18:56.198Z,1015.2
2016-09-22T05:19:56.178Z,1015.17
2016-09-22T05:20:56.160Z,1015.17
2016-09-22T05:21:56.147Z,1015.19
2016-09-22T05:22:56.127Z,1015.17
2016-09-22T05:23:56.108Z,1015.16
2016-09-22T05:24:56.096Z,1015.21
2016-09-22T05:25:56.077Z,1015.19
2016-09-22T05:26:56.060Z,1015.22
2016-09-22T05:27:56.044Z,1015.22
2016-09-22T05:28:56.027Z,1015.21
2016-09-22T05:29:56.010Z,1015.22
2016-09-22T05:30:55.994Z,1015.22
2016-09-22T05:31:55.981Z,1015.25
2016-09-22T05:32:55.964Z,1015.25
2016-09-22T05:33:55.951Z,1015.27
2016-09-22T05:34:55.934Z,1015.28
2016-09-22T05:35:55.913Z,1015.27
2016-09-22T05:36:55.897Z,1015.25
2016-09-22T05:37:55.884Z,1015.32
2016-09-22T05:38:55.863Z,1015.34
2016-09-22T05:39:55.848Z,1015.34
2016-09-22T05:40:55.836Z,1015.36
2016-09-22T05:41:55.814Z,1015.4
2016-09-22T05:42:55.802Z,1015.38
2016-09-22T05:43:55.785Z,1015.38
2016-09-22T05:44:55.772Z,1015.41
2016-09-22T05:45:55.750Z,1015.38
2016-09-22T05:46:55.734Z,1015.38
2016-09-22T05:47:55.719Z,1015.43
2016-09-22T05:48:55.701Z,1015.41
2016-09-22T05:49:55.690Z,1015.41
2016-09-22T05:50:55.671Z,1015.46
2016-09-22T05:51:55.651Z,1015.47
2016-09-22T05:52:55.635Z,1015.45
2016-09-22T05:53:55.619Z,1015.47
2016-09-22T05:54:55.603Z,1015.46
2016-09-22T05:55:55.587Z,1015.48
2016-09-22T05:56:55.572Z,1015.45
2016-09-22T05:57:55.561Z,1015.49
2016-09-22T05:58:55.540Z,1015.45
2016-09-22T05:59:55.521Z,1015.49
2016-09-22T06:00:55.503Z,1015.49
2016-09-22T06:01:55.490Z,1015.47
2016-09-22T06:02:55.471Z,1015.47
2016-09-22T06:03:55.458Z,1015.49
2016-09-22T06:04:55.447Z,1015.51
2016-09-22T06:05:55.421Z,1015.47
2016-09-22T06:06:55.409Z,1015.49
2016-09-22T06:07:55.389Z,1015.5
2016-09-22T06:08:55.374Z,1015.5
2016-09-22T06:09:55.358Z,1015.54
2016-09-22T06:10:55.341Z,1015.51
2016-09-22T06:11:55.326Z,1015.55
2016-09-22T06:12:55.307Z,1015.51
2016-09-22T06:13:55.292Z,1015.53
2016-09-22T06:14:55.275Z,1015.57
2016-09-22T06:15:55.263Z,1015.53
2016-09-22T06:16:55.244Z,1015.56
2016-09-22T06:17:55.225Z,1015.59
2016-09-22T06:18:55.214Z,1015.56
2016-09-22T06:19:55.195Z,1015.61
2016-09-22T06:20:55.178Z,1015.61
2016-09-22T06:21:55.161Z,1015.65
2016-09-22T06:22:55.145Z,1015.65
2016-09-22T06:23:55.130Z,1015.62
2016-09-22T06:24:55.110Z,1015.64
2016-09-22T06:25:55.097Z,1015.66
2016-09-22T06:26:55.078Z,1015.69
2016-09-22T06:27:55.062Z,1015.71
2016-09-22T06:28:55.046Z,1015.71
2016-09-22T06:29:55.032Z,1015.72
2016-09-22T06:30:55.007Z,1015.7
2016-09-22T06:31:54.999Z,1015.71
2016-09-22T06:32:54.983Z,1015.74
2016-09-22T06:33:54.962Z,1015.74
2016-09-22T06:34:54.947Z,1015.76
2016-09-22T06:35:54.930Z,1015.76
2016-09-22T06:36:54.917Z,1015.77
2016-09-22T06:37:54.898Z,1015.76
2016-09-22T06:38:54.883Z,1015.79
2016-09-22T06:39:54.863Z,1015.79
2016-09-22T06:40:54.847Z,1015.76
2016-09-22T06:41:54.834Z,1015.78
2016-09-22T06:42:54.813Z,1015.76
2016-09-22T06:43:54.799Z,1015.83
2016-09-22T06:44:54.782Z,1015.81
2016-09-22T06:45:54.765Z,1015.85
2016-09-22T06:46:54.747Z,1015.86
2016-09-22T06:47:54.732Z,1015.89
2016-09-22T06:48:54.717Z,1015.85
2016-09-22T06:49:54.699Z,1015.89
2016-09-22T06:50:54.682Z,1015.9
2016-09-22T06:51:54.665Z,1015.89
2016-09-22T06:52:54.650Z,1015.88
2016-09-22T06:53:54.637Z,1015.87
2016-09-22T06:54:54.616Z,1015.87
2016-09-22T06:55:54.601Z,1015.9
2016-09-22T06:56:54.583Z,1015.89
2016-09-22T06:57:54.567Z,1015.9
2016-09-22T06:58:54.549Z,1015.92
2016-09-22T06:59:54.534Z,1015.93
2016-09-22T07:00:54.520Z,1015.89
2016-09-22T07:01:54.500Z,1015.91
2016-09-22T07:02:54.488Z,1015.89
2016-09-22T07:03:54.466Z,1015.94
2016-09-22T07:04:54.452Z,1015.94
2016-09-22T07:05:54.436Z,1015.97
2016-09-22T07:06:54.421Z,1015.93
2016-09-22T07:07:54.402Z,1015.98
2016-09-22T07:08:54.389Z,1015.97
2016-09-22T07:09:54.370Z,1015.98
2016-09-22T07:10:54.354Z,1015.99
2016-09-22T07:11:54.339Z,1015.99
2016-09-22T07:12:54.331Z,1015.99
2016-09-22T07:13:54.304Z,1016.01
2016-09-22T07:14:54.293Z,1015.97
2016-09-22T07:15:54.269Z,1015.99
2016-09-22T07:16:54.256Z,1015.99
2016-09-22T07:17:54.237Z,1016.02
2016-09-22T07:18:54.223Z,1016.03
2016-09-22T07:19:54.210Z,1016.04
2016-09-22T07:20:54.193Z,1016.02
2016-09-22T07:21:54.173Z,1016.05
2016-09-22T07:22:54.162Z,1016.01
2016-09-22T07:23:54.141Z,1016.01
2016-09-22T07:24:54.125Z,1016.02
2016-09-22T07:25:54.111Z,1016
2016-09-22T07:26:54.090Z,1016.05
2016-09-22T07:27:54.075Z,1016.08
2016-09-22T07:28:54.059Z,1016.05
2016-09-22T07:29:54.041Z,1016.01
2016-09-22T07:30:54.025Z,1016.02
2016-09-22T07:31:54.009Z,1016.01
2016-09-22T07:32:53.992Z,1016.04
2016-09-22T07:33:53.976Z,1016.07
2016-09-22T07:34:53.961Z,1016.06
2016-09-22T07:35:53.948Z,1016.05
2016-09-22T07:36:53.925Z,1016.01
2016-09-22T07:37:53.915Z,1016.04
2016-09-22T07:38:53.901Z,1016
2016-09-22T07:39:53.879Z,1016.05
2016-09-22T07:40:53.863Z,1016.1
2016-09-22T07:41:53.846Z,1016.07
2016-09-22T07:42:53.830Z,1016.03
2016-09-22T07:43:53.817Z,1015.99
2016-09-22T07:44:53.794Z,1016.03
2016-09-22T07:45:53.779Z,1016.05
2016-09-22T07:46:53.762Z,1016.01
2016-09-22T07:47:53.749Z,1016.05
2016-09-22T07:48:53.739Z,1016.06
2016-09-22T07:49:53.713Z,1016.04
2016-09-22T07:50:53.703Z,1016.04
2016-09-22T07:51:53.686Z,1016.05
2016-09-22T07:52:53.664Z,1016.04
2016-09-22T07:53:53.655Z,1016.06
2016-09-22T07:54:53.632Z,1016.07
2016-09-22T07:55:53.615Z,1016.08
2016-09-22T07:56:53.599Z,1016.08
2016-09-22T07:57:53.584Z,1016.06
2016-09-22T07:58:53.568Z,1016.03
2016-09-22T07:59:53.550Z,1016.05
2016-09-22T08:00:53.536Z,1016.11
2016-09-22T08:01:53.518Z,1016.12
2016-09-22T08:02:53.503Z,1016.13
2016-09-22T08:03:53.486Z,1016.12
2016-09-22T08:04:53.466Z,1016.15
2016-09-22T08:05:53.455Z,1016.13
2016-09-22T08:06:53.436Z,1016.16
2016-09-22T08:07:53.421Z,1016.11
2016-09-22T08:08:53.406Z,1016.13
2016-09-22T08:09:53.387Z,1016.11
2016-09-22T08:10:53.370Z,1016.12
2016-09-22T08:11:53.351Z,1016.14
2016-09-22T08:12:53.337Z,1016.15
2016-09-22T08:13:53.323Z,1016.16
2016-09-22T08:14:53.302Z,1016.18
2016-09-22T08:15:53.285Z,1016.16
2016-09-22T08:16:53.273Z,1016.18
2016-09-22T08:17:53.255Z,1016.17
2016-09-22T08:18:53.240Z,1016.17
2016-09-22T08:19:53.227Z,1016.16
2016-09-22T08:20:53.212Z,1016.16
2016-09-22T08:21:53.193Z,1016.15
2016-09-22T08:22:53.181Z,1016.14
2016-09-22T08:23:53.153Z,1016.1
2016-09-22T08:24:53.140Z,1016.13
2016-09-22T08:25:53.125Z,1016.11
2016-09-22T08:26:53.103Z,1016.12
2016-09-22T08:27:53.092Z,1016.1
2016-09-22T08:28:53.074Z,1016.09
2016-09-22T08:29:53.060Z,1016.12
2016-09-22T08:30:53.038Z,1016.1
2016-09-22T08:31:53.022Z,1016.1
2016-09-22T08:32:53.009Z,1016.1
2016-09-22T08:33:52.991Z,1016.1
2016-09-22T08:34:52.977Z,1016.05
2016-09-22T08:35:52.958Z,1016.04
2016-09-22T08:36:52.945Z,1016.05
2016-09-22T08:37:52.924Z,1016.07
2016-09-22T08:38:52.909Z,1016.07
2016-09-22T08:39:52.900Z,1016.06
2016-09-22T08:40:52.875Z,1016.08
2016-09-22T08:41:52.860Z,1016.14
2016-09-22T08:42:52.845Z,1016.07
2016-09-22T08:43:52.823Z,1016.09
2016-09-22T08:44:52.809Z,1016.07
2016-09-22T08:45:52.792Z,1016.09
2016-09-22T08:46:52.778Z,1016.1
2016-09-22T08:47:52.766Z,1016.03
2016-09-22T08:48:52.745Z,1016.07
2016-09-22T08:49:52.730Z,1016.07
2016-09-22T08:50:52.710Z,1016.11
2016-09-22T08:51:52.696Z,1016.08
2016-09-22T08:52:52.675Z,1016.09
2016-09-22T08:53:52.662Z,1016.05
2016-09-22T08:54:52.648Z,1016.1
2016-09-22T08:55:52.631Z,1016.07
2016-09-22T08:56:52.614Z,1016.06
2016-09-22T08:57:52.614Z,1016.05
2016-09-22T08:58:52.582Z,1016.06
2016-09-22T08:59:52.564Z,1016.06
2016-09-22T09:00:52.551Z,1016.02
2016-09-22T09:01:52.530Z,1016.06
2016-09-22T09:02:52.515Z,1016.04
2016-09-22T09:03:52.500Z,1016.02
2016-09-22T09:04:52.484Z,1016
2016-09-22T09:05:52.469Z,1016.03
2016-09-22T09:06:52.450Z,1016.01
2016-09-22T09:07:52.434Z,1015.94
2016-09-22T09:08:52.422Z,1016.01
2016-09-22T09:09:52.406Z,1016.05
2016-09-22T09:10:52.387Z,1016.02
2016-09-22T09:11:52.373Z,1016.07
2016-09-22T09:12:52.350Z,1016.04
2016-09-22T09:13:52.335Z,1016
2016-09-22T09:14:52.321Z,1016.02
2016-09-22T09:15:52.306Z,1016
2016-09-22T09:16:52.289Z,1016.01
2016-09-22T09:17:52.268Z,1016.02
2016-09-22T09:18:52.259Z,1016.01
2016-09-22T09:19:52.239Z,1015.99
2016-09-22T09:20:52.226Z,1015.99
2016-09-22T09:21:52.206Z,1015.97
2016-09-22T09:22:52.190Z,1015.99
2016-09-22T09:23:52.172Z,1015.95
2016-09-22T09:24:52.165Z,1015.97
2016-09-22T09:25:52.141Z,1015.94
2016-09-22T09:26:52.121Z,1015.91
2016-09-22T09:27:52.107Z,1015.94
2016-09-22T09:28:52.094Z,1015.96
2016-09-22T09:29:52.075Z,1015.96
2016-09-22T09:30:52.057Z,1015.96
2016-09-22T09:31:52.043Z,1015.9
2016-09-22T09:32:52.026Z,1015.94
2016-09-22T09:33:52.010Z,1015.93
2016-09-22T09:34:51.993Z,1015.93
2016-09-22T09:35:51.981Z,1015.96
2016-09-22T09:36:51.962Z,1015.9
2016-09-22T09:37:51.941Z,1015.9
2016-09-22T09:38:51.927Z,1015.9
2016-09-22T09:39:51.912Z,1015.88
2016-09-22T09:40:51.895Z,1015.85
2016-09-22T09:41:51.878Z,1015.89
2016-09-22T09:42:51.864Z,1015.88
2016-09-22T09:43:51.844Z,1015.91
2016-09-22T09:44:51.829Z,1015.86
2016-09-22T09:45:51.814Z,1015.89
2016-09-22T09:46:51.796Z,1015.93
2016-09-22T09:47:51.779Z,1015.87
2016-09-22T09:48:51.768Z,1015.95
2016-09-22T09:49:51.746Z,1015.9
2016-09-22T09:50:51.730Z,1015.88
2016-09-22T09:51:51.713Z,1015.87
2016-09-22T09:52:51.699Z,1015.88
2016-09-22T09:53:51.685Z,1015.92
2016-09-22T09:54:51.665Z,1015.9
2016-09-22T09:55:51.650Z,1015.94
2016-09-22T09:56:51.631Z,1015.89
2016-09-22T09:57:51.617Z,1015.84
2016-09-22T09:58:51.602Z,1015.86
2016-09-22T09:59:51.585Z,1015.84
2016-09-22T10:00:51.566Z,1015.94
2016-09-22T10:01:51.554Z,1015.8
2016-09-22T10:02:51.539Z,1015.82
2016-09-22T10:03:51.524Z,1015.82
2016-09-22T10:04:51.502Z,1015.88
2016-09-22T10:05:51.486Z,1015.86
2016-09-22T10:06:51.468Z,1015.85
2016-09-22T10:07:51.454Z,1015.9
2016-09-22T10:08:51.440Z,1015.92
2016-09-22T10:09:51.421Z,1015.85
2016-09-22T10:10:51.404Z,1015.86
2016-09-22T10:11:51.397Z,1015.87
2016-09-22T10:12:51.373Z,1015.85
2016-09-22T10:13:51.358Z,1015.88
2016-09-22T10:14:51.340Z,1015.82
2016-09-22T10:15:51.325Z,1015.88
2016-09-22T10:16:51.307Z,1015.86
2016-09-22T10:17:51.295Z,1015.85
2016-09-22T10:18:51.277Z,1015.83
2016-09-22T10:19:51.257Z,1015.79
2016-09-22T10:20:51.242Z,1015.81
2016-09-22T10:21:51.226Z,1015.77
2016-09-22T10:22:51.210Z,1015.82
2016-09-22T10:23:51.194Z,1015.77
2016-09-22T10:24:51.179Z,1015.81
2016-09-22T10:25:51.162Z,1015.78
2016-09-22T10:26:51.147Z,1015.81
2016-09-22T10:27:51.130Z,1015.79
2016-09-22T10:28:51.114Z,1015.75
2016-09-22T10:29:51.099Z,1015.82
2016-09-22T10:30:51.085Z,1015.78
2016-09-22T10:31:51.067Z,1015.77
2016-09-22T10:32:51.049Z,1015.79
2016-09-22T10:33:51.036Z,1015.79
2016-09-22T10:34:51.015Z,1015.77
2016-09-22T10:35:50.998Z,1015.76
2016-09-22T10:36:50.983Z,1015.74
2016-09-22T10:37:50.980Z,1015.74
2016-09-22T10:38:50.956Z,1015.76
2016-09-22T10:39:50.937Z,1015.74
2016-09-22T10:40:50.920Z,1015.72
2016-09-22T10:41:50.904Z,1015.76
2016-09-22T10:42:50.888Z,1015.71
2016-09-22T10:43:50.875Z,1015.77
2016-09-22T10:44:50.856Z,1015.74
2016-09-22T10:45:50.838Z,1015.77
2016-09-22T10:46:50.823Z,1015.76
2016-09-22T10:47:50.811Z,1015.76
2016-09-22T10:48:50.790Z,1015.77
2016-09-22T10:49:50.775Z,1015.76
2016-09-22T10:50:50.759Z,1015.7
2016-09-22T10:51:50.741Z,1015.74
2016-09-22T10:52:50.724Z,1015.73
2016-09-22T10:53:50.714Z,1015.69
2016-09-22T10:54:50.699Z,1015.71
2016-09-22T10:55:50.676Z,1015.66
2016-09-22T10:56:50.663Z,1015.66
2016-09-22T10:57:50.656Z,1015.67
2016-09-22T10:58:50.625Z,1015.66
2016-09-22T10:59:50.613Z,1015.69
2016-09-22T11:00:50.596Z,1015.76
2016-09-22T11:01:50.579Z,1015.71
2016-09-22T11:02:50.563Z,1015.75
2016-09-22T11:03:50.555Z,1015.77
2016-09-22T11:04:50.535Z,1015.72
2016-09-22T11:05:50.516Z,1015.74
2016-09-22T11:06:50.503Z,1015.74
2016-09-22T11:07:50.485Z,1015.72
2016-09-22T11:08:50.469Z,1015.68
2016-09-22T11:09:50.451Z,1015.67
2016-09-22T11:10:50.436Z,1015.64
2016-09-22T11:11:50.419Z,1015.71
2016-09-22T11:12:50.400Z,1015.69
2016-09-22T11:13:50.386Z,1015.74
2016-09-22T11:14:50.375Z,1015.66
2016-09-22T11:15:50.354Z,1015.64
2016-09-22T11:16:50.333Z,1015.57
2016-09-22T11:17:50.320Z,1015.68
2016-09-22T11:18:50.305Z,1015.67
2016-09-22T11:19:50.287Z,1015.69
2016-09-22T11:20:50.272Z,1015.7
2016-09-22T11:21:50.258Z,1015.7
2016-09-22T11:22:50.246Z,1015.69
2016-09-22T11:23:50.224Z,1015.73
2016-09-22T11:24:50.219Z,1015.7
2016-09-22T11:25:50.199Z,1015.66
2016-09-22T11:26:50.173Z,1015.66
2016-09-22T11:27:50.158Z,1015.62
2016-09-22T11:28:50.139Z,1015.63
2016-09-22T11:29:50.131Z,1015.62
2016-09-22T11:30:50.111Z,1015.64
2016-09-22T11:31:50.103Z,1015.64
2016-09-22T11:32:50.090Z,1015.63
2016-09-22T11:33:50.065Z,1015.61
2016-09-22T11:34:50.045Z,1015.6
2016-09-22T11:35:50.030Z,1015.65
2016-09-22T11:36:50.024Z,1015.63
2016-09-22T11:37:50.007Z,1015.65
2016-09-22T11:38:49.987Z,1015.6
2016-09-22T11:39:49.971Z,1015.61
2016-09-22T11:40:49.962Z,1015.56
2016-09-22T11:41:49.934Z,1015.57
2016-09-22T11:42:49.934Z,1015.58
2016-09-22T11:43:49.965Z,1015.54
2016-09-22T11:44:49.906Z,1015.51
2016-09-22T11:45:49.866Z,1015.54
2016-09-22T11:46:49.854Z,1015.53
2016-09-22T11:47:49.853Z,1015.49
2016-09-22T11:48:49.828Z,1015.5
2016-09-22T11:49:49.802Z,1015.46
2016-09-22T11:50:49.797Z,1015.46
2016-09-22T11:51:49.778Z,1015.5
2016-09-22T11:52:49.761Z,1015.47
2016-09-22T11:53:49.757Z,1015.38
2016-09-22T11:54:49.740Z,1015.45
2016-09-22T11:55:49.768Z,1015.48
2016-09-22T11:56:49.727Z,1015.48
2016-09-22T11:57:49.745Z,1015.45
2016-09-22T11:58:49.716Z,1015.48
2016-09-22T11:59:49.658Z,1015.48
2016-09-22T12:00:49.643Z,1015.42
2016-09-22T12:01:49.633Z,1015.41
2016-09-22T12:02:49.611Z,1015.39
2016-09-22T12:03:49.592Z,1015.32
2016-09-22T12:04:49.577Z,1015.42
2016-09-22T12:05:49.624Z,1015.36
2016-09-22T12:06:49.543Z,1015.43
2016-09-22T12:07:49.534Z,1015.41